Time;durP1;ratioP1;P1;durP2;ratioP2;P2;SDS_P1;SDS_P2;PMS_P1;PMS_P2;Temp;Humidity;BMP_temperature;BMP_pressure;BME280_temperature;BME280_humidity;BME280_pressure;Samples;Min_cycle;Max_cycle;Signal;HPM_P1;HPM_P2
2023/11/12 00:01:12;;;;;;;4.43;3.67;;;5.40;84.70;;;4.72;88.54;97176.50;4948483;29;21334;-73
2023/11/12 00:03:39;;;;;;;4.60;4.20;;;5.50;84.90;;;4.67;88.83;97168.25;4949270;29;20465;-73
2023/11/12 00:06:06;;;;;;;4.80;4.27;;;5.50;85.10;;;4.61;88.94;97166.34;4947930;28;20917;-72
2023/11/12 00:08:33;;;;;;;5.13;3.90;;;5.50;84.80;;;4.67;88.26;97169.06;4941971;28;20540;-73
2023/11/12 00:11:01;;;;;;;4.73;4.33;;;5.50;84.60;;;4.56;89.04;97171.47;4951864;28;20458;-74
2023/11/12 00:13:28;;;;;;;4.10;3.70;;;5.50;84.50;;;4.40;89.40;97168.09;4953772;28;20447;-73
2023/11/12 00:15:57;;;;;;;5.13;4.00;;;5.40;84.60;;;4.40;89.74;97162.75;4951727;28;20464;-72
2023/11/12 00:18:24;;;;;;;6.00;4.00;;;5.40;84.90;;;4.46;90.11;97167.31;4950122;28;20461;-73
2023/11/12 00:20:51;;;;;;;4.37;3.70;;;5.40;84.80;;;4.50;88.93;97167.75;4950891;28;20493;-72
2023/11/12 00:23:23;;;;;;;6.30;4.20;;;5.30;84.80;;;4.38;89.01;97154.09;4948962;28;20540;-72
2023/11/12 00:25:51;;;;;;;6.27;3.30;;;5.30;84.90;;;4.41;89.94;97158.25;4939595;28;20504;-73
2023/11/12 00:28:19;;;;;;;7.27;4.30;;;5.30;85.00;;;4.34;90.57;97153.66;4947705;28;20978;-72
2023/11/12 00:30:46;;;;;;;4.50;4.10;;;5.20;85.20;;;4.36;89.76;97156.16;4950076;28;20454;-73
2023/11/12 00:33:14;;;;;;;5.43;3.80;;;5.20;85.40;;;4.42;89.26;97155.34;4947149;28;20946;-73
2023/11/12 00:35:42;;;;;;;4.27;3.53;;;5.20;85.00;;;4.38;89.31;97144.22;4948463;28;20465;-74
2023/11/12 00:38:10;;;;;;;5.90;4.13;;;5.20;85.40;;;4.22;90.55;97144.53;4949383;28;20458;-74
2023/11/12 00:40:38;;;;;;;4.70;4.20;;;5.10;85.50;;;4.19;89.88;97150.28;4949229;28;20462;-72
2023/11/12 00:43:05;;;;;;;4.37;3.87;;;5.00;85.30;;;4.08;89.83;97138.28;4940162;28;20618;-72
2023/11/12 00:45:32;;;;;;;3.93;3.10;;;5.00;85.30;;;3.81;91.33;97138.09;4949214;29;20466;-73
2023/11/12 00:48:00;;;;;;;7.57;3.73;;;4.80;85.60;;;3.38;91.40;97074.88;4949386;28;20481;-74
2023/11/12 00:50:28;;;;;;;5.40;3.20;;;4.70;86.10;;;3.75;92.01;97145.03;4949027;28;20477;-72
2023/11/12 00:52:58;;;;;;;4.33;3.93;;;4.60;86.30;;;3.68;91.63;97144.97;4950539;28;20524;-72
2023/11/12 00:55:25;;;;;;;4.33;3.93;;;4.50;86.60;;;3.46;92.30;97127.31;4963008;28;20516;-72
2023/11/12 00:57:52;;;;;;;5.07;4.03;;;4.40;87.30;;;3.57;92.64;97142.00;4942657;28;20457;-71
2023/11/12 01:00:21;;;;;;;7.27;4.30;;;4.30;88.10;;;3.48;93.16;97142.13;4965005;28;20539;-72
2023/11/12 01:02:48;;;;;;;3.63;3.33;;;4.30;88.60;;;3.44;94.06;97142.72;4947230;28;20453;-73
2023/11/12 01:05:15;;;;;;;4.30;3.90;;;4.20;88.90;;;3.33;93.90;97139.53;4948822;28;20461;-73
2023/11/12 01:07:44;;;;;;;5.37;4.00;;;4.20;89.90;;;3.29;94.23;97121.41;4948347;28;20484;-73
2023/11/12 01:10:12;;;;;;;5.70;3.63;;;4.20;90.30;;;3.34;94.46;97138.50;4949389;28;20480;-72
2023/11/12 01:12:39;;;;;;;6.97;3.97;;;4.10;90.10;;;3.27;94.96;97148.31;4943840;29;20554;-73
2023/11/12 01:15:07;;;;;;;5.17;3.50;;;4.10;90.20;;;3.19;95.63;97146.59;4940573;28;20467;-72
2023/11/12 01:17:35;;;;;;;4.00;3.60;;;4.10;90.50;;;3.20;95.23;97136.72;4946925;29;20980;-72
2023/11/12 01:20:06;;;;;;;7.60;4.03;;;4.10;90.40;;;3.17;95.22;97142.44;4949650;28;20476;-71
2023/11/12 01:22:33;;;;;;;6.20;4.40;;;4.10;90.60;;;3.10;95.28;97137.84;4963507;28;20666;-71
2023/11/12 01:25:02;;;;;;;5.37;3.90;;;4.00;90.30;;;3.02;95.44;97124.63;4948734;28;20543;-72
2023/11/12 01:27:29;;;;;;;4.60;4.20;;;3.90;90.40;;;2.98;95.84;97134.03;4944204;28;20497;-73
2023/11/12 01:29:56;;;;;;;5.07;3.10;;;3.90;90.50;;;2.92;96.22;97134.78;4963014;28;20472;-72
2023/11/12 01:32:24;;;;;;;5.63;4.30;;;3.70;90.90;;;2.87;96.42;97129.19;4945803;28;20469;-72
2023/11/12 01:34:51;;;;;;;4.23;3.80;;;3.60;91.20;;;2.86;96.54;97130.22;4947100;28;20921;-71
2023/11/12 01:37:18;;;;;;;6.30;4.23;;;3.60;91.70;;;2.74;97.16;97138.69;4948345;28;20706;-72
2023/11/12 01:39:46;;;;;;;3.87;3.57;;;3.60;91.40;;;2.71;97.78;97120.41;4962112;28;20461;-72
2023/11/12 01:42:15;;;;;;;4.13;3.43;;;3.50;91.80;;;2.36;97.47;97090.84;4944661;28;20452;-73
2023/11/12 01:44:43;;;;;;;4.80;4.30;;;3.40;91.50;;;2.40;98.05;97126.78;4947592;28;20908;-72
2023/11/12 01:47:12;;;;;;;13.77;4.80;;;3.20;91.80;;;2.29;99.35;97117.41;4946875;29;20476;-72
2023/11/12 01:49:40;;;;;;;5.73;4.40;;;3.10;92.20;;;2.41;99.23;97115.09;4944997;28;20457;-72
2023/11/12 01:52:11;;;;;;;4.70;4.20;;;3.10;93.40;;;1.83;98.99;97026.00;4947531;28;20476;-72
2023/11/12 01:54:39;;;;;;;4.80;3.90;;;3.20;93.40;;;2.35;99.57;97115.81;4962579;28;20449;-73
2023/11/12 01:57:08;;;;;;;4.37;3.97;;;3.10;93.20;;;2.08;99.20;97094.97;4941866;28;20459;-72
2023/11/12 01:59:36;;;;;;;5.90;4.33;;;3.00;93.00;;;2.00;100.00;97110.22;4945477;29;20538;-73
2023/11/12 02:02:05;;;;;;;5.40;4.90;;;2.90;93.10;;;1.94;100.00;97115.28;4947328;28;20523;-73
2023/11/12 02:04:32;;;;;;;6.40;4.50;;;2.70;93.60;;;1.84;100.00;97122.72;4945828;28;20459;-74
2023/11/12 02:07:01;;;;;;;5.90;4.50;;;2.60;94.00;;;1.80;100.00;97121.44;4943740;28;20516;-73
2023/11/12 02:09:29;;;;;;;4.87;4.37;;;2.60;94.50;;;1.83;100.00;97121.06;4948859;28;21103;-73
2023/11/12 02:11:57;;;;;;;5.30;4.77;;;2.60;95.40;;;2.00;100.00;97120.91;4947202;28;21100;-71
2023/11/12 02:14:26;;;;;;;6.60;4.10;;;2.70;96.80;;;1.97;100.00;97122.06;4945975;28;20474;-72
2023/11/12 02:16:55;;;;;;;6.20;4.70;;;2.70;96.30;;;1.83;100.00;97126.38;4945288;28;20873;-71
2023/11/12 02:19:25;;;;;;;5.57;4.50;;;2.60;95.60;;;1.76;100.00;97114.81;4948018;29;20547;-72
2023/11/12 02:21:53;;;;;;;7.97;4.57;;;2.50;95.80;;;1.83;100.00;97127.22;4945785;29;20845;-73
2023/11/12 02:24:23;;;;;;;5.60;4.27;;;2.70;96.60;;;1.33;100.00;97016.84;4952919;28;20564;-73
2023/11/12 02:26:51;;;;;;;5.83;5.23;;;2.80;97.10;;;1.88;100.00;97096.53;4940927;28;20499;-72
2023/11/12 02:29:19;;;;;;;5.53;4.90;;;2.80;97.40;;;2.08;100.00;97118.97;4947516;29;20496;-73
2023/11/12 02:31:46;;;;;;;4.57;4.17;;;2.90;97.40;;;1.96;100.00;97110.59;4949181;28;20490;-72
2023/11/12 02:34:13;;;;;;;9.63;5.70;;;2.90;96.90;;;2.12;100.00;97117.63;4965334;28;20519;-72
2023/11/12 02:36:40;;;;;;;6.13;4.77;;;2.90;96.70;;;2.04;100.00;97124.84;4964578;29;20462;-71
2023/11/12 02:39:09;;;;;;;7.00;4.50;;;2.90;96.00;;;2.00;100.00;97104.91;4961285;29;20503;-73
2023/11/12 02:41:39;;;;;;;6.60;4.87;;;2.90;96.30;;;2.11;100.00;97115.13;4946622;28;20469;-73
2023/11/12 02:44:11;;;;;;;6.50;5.80;;;3.00;96.20;;;2.10;100.00;97114.28;4947604;28;20454;-70
2023/11/12 02:46:40;;;;;;;5.60;4.90;;;3.00;95.50;;;1.94;100.00;97109.13;4948078;28;20447;-70
2023/11/12 02:49:33;;;;;;;6.53;5.10;;;2.90;94.50;;;1.75;100.00;97115.81;4948039;28;20508;-72
2023/11/12 02:52:00;;;;;;;8.90;5.50;;;2.70;94.40;;;1.70;100.00;97117.19;4943657;29;20472;-71
2023/11/12 02:54:28;;;;;;;6.67;5.07;;;2.60;95.00;;;1.64;100.00;97133.88;4947379;28;20489;-72
2023/11/12 02:56:56;;;;;;;6.67;5.20;;;2.50;95.40;;;1.89;100.00;97125.66;4947276;29;20933;-72
2023/11/12 02:59:24;;;;;;;5.70;5.00;;;2.60;97.50;;;2.09;100.00;97138.47;4949764;29;20456;-72
2023/11/12 03:01:51;;;;;;;7.33;4.90;;;2.80;98.60;;;2.21;100.00;97134.34;4951564;28;20561;-71
2023/11/12 03:04:19;;;;;;;6.73;5.50;;;3.00;99.10;;;2.35;100.00;97130.00;4948740;28;20467;-72
2023/11/12 03:06:48;;;;;;;6.40;5.57;;;3.20;99.30;;;2.34;100.00;97122.19;4950423;28;20464;-70
2023/11/12 03:09:15;;;;;;;6.00;5.23;;;3.30;98.20;;;2.48;100.00;97134.66;4951174;28;20479;-71
2023/11/12 03:11:43;;;;;;;5.13;4.63;;;3.30;97.20;;;2.53;100.00;97131.44;4949936;29;20456;-72
2023/11/12 03:14:12;;;;;;;6.27;5.50;;;3.50;96.10;;;2.66;100.00;97133.47;4950572;28;20516;-71
2023/11/12 03:16:39;;;;;;;7.50;5.60;;;3.50;95.70;;;2.69;100.00;97127.75;4945450;28;20458;-72
2023/11/12 03:19:06;;;;;;;7.63;5.27;;;3.60;95.30;;;2.56;100.00;97125.75;4946997;29;20462;-71
2023/11/12 03:21:33;;;;;;;6.37;4.97;;;3.60;94.70;;;2.67;100.00;97127.13;4950137;28;20466;-73
2023/11/12 03:24:01;;;;;;;8.03;5.20;;;3.60;94.00;;;2.77;100.00;97121.50;4951036;28;21005;-71
2023/11/12 03:26:28;;;;;;;5.40;4.90;;;3.70;93.60;;;2.63;100.00;97116.00;4961145;28;20560;-73
2023/11/12 03:28:55;;;;;;;4.90;4.50;;;3.70;93.40;;;2.68;100.00;97113.59;4948461;28;20469;-72
2023/11/12 03:31:24;;;;;;;6.10;5.07;;;3.60;93.60;;;2.67;100.00;97121.78;4949087;28;20456;-72
2023/11/12 03:33:51;;;;;;;9.97;4.60;;;3.60;93.10;;;2.75;99.83;97100.31;4951178;28;20461;-72
2023/11/12 03:36:20;;;;;;;4.77;4.37;;;3.70;93.40;;;2.68;100.00;97104.78;4949767;28;20465;-71
2023/11/12 03:38:47;;;;;;;5.37;4.87;;;3.70;92.90;;;2.58;100.00;97090.91;4950066;29;20464;-71
2023/11/12 03:41:15;;;;;;;5.50;4.50;;;3.60;92.80;;;2.57;100.00;97095.38;4945659;29;20453;-71
2023/11/12 03:43:42;;;;;;;4.83;4.40;;;3.60;92.40;;;2.44;100.00;97098.72;4947646;29;20465;-72
2023/11/12 03:46:10;;;;;;;7.83;4.93;;;3.40;92.40;;;2.26;100.00;97102.63;4948278;28;20994;-71
2023/11/12 03:48:38;;;;;;;11.97;4.80;;;3.30;92.50;;;2.19;100.00;97098.22;4950014;28;20559;-71
2023/11/12 03:51:06;;;;;;;4.90;3.90;;;3.10;93.00;;;1.68;100.00;97033.97;4950061;28;20497;-71
2023/11/12 03:53:33;;;;;;;5.87;4.43;;;3.00;92.90;;;1.95;100.00;97103.63;4950154;28;20468;-72
2023/11/12 03:56:01;;;;;;;8.17;4.93;;;2.90;93.10;;;1.87;100.00;97098.38;4947781;28;20977;-71
2023/11/12 03:58:29;;;;;;;5.83;4.53;;;2.90;94.30;;;1.83;100.00;97105.06;4949572;28;20464;-73
2023/11/12 04:00:57;;;;;;;8.60;4.63;;;2.90;95.20;;;1.84;100.00;97101.41;4949444;28;21170;-72
2023/11/12 04:03:27;;;;;;;6.10;4.70;;;2.90;95.40;;;1.86;100.00;97099.38;4947586;29;20457;-71
2023/11/12 04:05:56;;;;;;;4.87;4.37;;;2.90;95.40;;;1.87;100.00;97095.69;4945263;29;20454;-72
2023/11/12 04:08:23;;;;;;;6.10;4.70;;;2.90;95.60;;;2.08;100.00;97110.16;4948354;29;20890;-71
2023/11/12 04:10:51;;;;;;;5.30;4.77;;;3.00;96.30;;;2.14;100.00;97089.94;4950242;28;20458;-72
2023/11/12 04:13:18;;;;;;;5.20;4.67;;;3.00;95.90;;;2.28;100.00;97085.59;4948499;28;20454;-71
2023/11/12 04:15:46;;;;;;;6.10;4.60;;;3.10;95.80;;;2.23;100.00;97081.66;4960475;28;20954;-72
2023/11/12 04:18:13;;;;;;;8.63;4.23;;;3.20;94.90;;;2.22;100.00;97077.34;4945306;28;20460;-71
2023/11/12 04:20:40;;;;;;;7.23;5.40;;;3.20;94.60;;;2.18;100.00;97070.72;4949747;28;20462;-71
2023/11/12 04:23:09;;;;;;;9.23;5.20;;;3.20;94.20;;;2.02;100.00;97063.75;4949076;28;20468;-71
2023/11/12 04:25:37;;;;;;;4.50;3.90;;;3.10;93.70;;;1.96;100.00;97065.31;4949727;28;20468;-71
2023/11/12 04:28:04;;;;;;;4.57;4.10;;;2.90;94.00;;;1.89;100.00;97067.03;4940386;28;20484;-72
2023/11/12 04:30:32;;;;;;;5.60;4.40;;;2.90;94.10;;;1.69;100.00;97046.28;4950698;28;20465;-71
2023/11/12 04:32:59;;;;;;;5.50;4.93;;;2.80;94.70;;;1.20;100.00;96978.38;4941876;28;20461;-71
2023/11/12 04:35:29;;;;;;;9.00;4.87;;;2.70;94.60;;;1.62;100.00;97053.38;4951339;28;20474;-71
2023/11/12 04:37:56;;;;;;;6.80;4.63;;;2.60;94.70;;;1.48;100.00;97062.97;4939388;29;21166;-72
2023/11/12 04:40:24;;;;;;;4.77;4.30;;;2.50;94.70;;;1.36;100.00;97049.28;4949044;28;20503;-71
2023/11/12 04:42:52;;;;;;;5.67;4.90;;;2.40;95.20;;;1.29;100.00;97056.34;4950247;28;20455;-70
2023/11/12 04:45:19;;;;;;;4.77;4.37;;;2.30;95.10;;;1.06;100.00;97046.53;4952446;28;20472;-71
2023/11/12 04:47:46;;;;;;;5.17;4.63;;;2.20;96.10;;;1.07;100.00;97053.50;4951255;29;20500;-71
2023/11/12 04:50:14;;;;;;;5.60;4.07;;;2.10;96.50;;;0.98;100.00;97046.59;4953337;28;20452;-69
2023/11/12 04:52:41;;;;;;;7.90;4.37;;;2.10;97.20;;;1.00;100.00;97049.91;4944023;29;20461;-72
2023/11/12 04:55:09;;;;;;;6.27;4.90;;;2.00;97.30;;;0.92;100.00;97041.97;4949036;28;20479;-71
2023/11/12 04:57:38;;;;;;;7.73;4.73;;;2.00;97.70;;;0.95;100.00;97039.81;4944199;29;21150;-69
2023/11/12 05:00:07;;;;;;;5.93;4.90;;;2.00;98.40;;;0.75;100.00;97007.53;4943834;28;20474;-71
2023/11/12 05:02:35;;;;;;;7.17;4.83;;;2.00;98.20;;;0.82;100.00;97035.06;4948311;28;20492;-72
2023/11/12 05:05:02;;;;;;;5.77;4.67;;;1.90;98.20;;;0.84;100.00;97041.06;4947541;28;20455;-72
2023/11/12 05:07:29;;;;;;;4.90;4.40;;;1.80;98.50;;;0.80;100.00;97041.59;4948488;28;20456;-71
2023/11/12 05:09:56;;;;;;;8.80;4.37;;;1.80;98.40;;;0.80;100.00;97049.56;4949656;28;20482;-72
2023/11/12 05:12:24;;;;;;;5.37;4.83;;;1.80;99.30;;;0.81;100.00;97037.91;4945080;29;20451;-71
2023/11/12 05:14:53;;;;;;;8.90;4.97;;;1.90;99.90;;;0.65;100.00;97018.41;4947531;28;20464;-72
2023/11/12 05:17:21;;;;;;;8.37;5.87;;;1.90;99.80;;;0.83;100.00;97050.03;4947581;28;20468;-71
2023/11/12 05:19:49;;;;;;;6.57;5.00;;;1.90;99.70;;;0.30;100.00;96958.69;4944787;28;20541;-71
2023/11/12 05:22:17;;;;;;;6.17;4.93;;;1.80;99.70;;;0.77;100.00;97042.75;4948413;28;20475;-72
2023/11/12 05:24:44;;;;;;;6.27;5.57;;;1.80;99.70;;;0.82;100.00;97047.56;4947898;28;20459;-71
2023/11/12 05:27:12;;;;;;;7.20;4.93;;;1.80;99.60;;;0.79;100.00;97038.09;4940094;28;20467;-70
2023/11/12 05:29:39;;;;;;;5.70;4.67;;;1.80;99.70;;;0.71;100.00;97030.19;4941187;28;20485;-71
2023/11/12 05:32:08;;;;;;;5.90;5.00;;;1.80;99.50;;;0.75;100.00;97042.09;4946179;28;20457;-71
2023/11/12 05:34:35;;;;;;;6.60;5.40;;;1.80;99.10;;;0.80;100.00;97042.41;4950667;28;20547;-71
2023/11/12 05:37:03;;;;;;;7.77;5.93;;;1.80;99.40;;;0.75;100.00;97038.59;4939739;28;20462;-72
2023/11/12 05:39:31;;;;;;;6.87;5.60;;;1.80;99.00;;;0.74;100.00;97044.94;4946059;29;20456;-72
2023/11/12 05:41:58;;;;;;;10.03;5.40;;;1.70;99.00;;;0.64;100.00;97038.03;4946588;29;20460;-72
2023/11/12 05:44:26;;;;;;;7.87;4.90;;;1.60;98.50;;;0.45;100.00;97012.72;4944404;29;20456;-72
2023/11/12 05:46:53;;;;;;;6.40;5.13;;;1.60;98.80;;;0.62;100.00;97033.88;4945954;28;20450;-72
2023/11/12 05:49:22;;;;;;;5.80;5.17;;;1.60;99.40;;;0.63;100.00;97035.53;4946760;29;20965;-72
2023/11/12 05:51:49;;;;;;;6.73;5.57;;;1.60;99.40;;;0.49;100.00;97035.28;4946196;29;20530;-72
2023/11/12 05:54:16;;;;;;;7.87;5.30;;;1.50;98.60;;;0.53;100.00;97033.94;4943772;28;20958;-71
2023/11/12 05:56:44;;;;;;;6.23;4.97;;;1.50;99.40;;;0.50;100.00;97030.81;4944390;28;20465;-71
2023/11/12 05:59:11;;;;;;;5.93;4.80;;;1.50;99.40;;;0.51;100.00;97019.97;4948722;28;21057;-72
2023/11/12 06:01:38;;;;;;;6.00;5.17;;;1.50;99.60;;;0.44;100.00;97026.19;4948293;28;20510;-72
2023/11/12 06:04:06;;;;;;;6.10;5.50;;;1.40;99.50;;;0.46;100.00;97024.19;4946799;28;20527;-71
2023/11/12 06:06:34;;;;;;;6.00;5.20;;;1.40;99.90;;;0.51;100.00;97025.31;4950058;28;20454;-72
2023/11/12 06:09:01;;;;;;;6.40;4.80;;;1.50;99.90;;;0.56;100.00;97033.59;4948614;28;20561;-72
2023/11/12 06:11:29;;;;;;;9.20;5.30;;;1.50;99.90;;;0.56;100.00;97035.41;4939524;28;20930;-71
2023/11/12 06:13:56;;;;;;;8.93;5.70;;;1.50;99.90;;;0.50;100.00;97028.97;4947879;28;21158;-71
2023/11/12 06:16:23;;;;;;;5.93;5.23;;;1.50;99.90;;;0.47;100.00;97029.31;4947332;28;20454;-71
2023/11/12 06:18:50;;;;;;;6.20;5.30;;;1.40;99.90;;;0.52;100.00;97026.94;4948491;28;20820;-71
2023/11/12 06:21:18;;;;;;;7.57;5.40;;;1.50;99.90;;;0.47;100.00;97024.00;4947706;28;20461;-71
2023/11/12 06:23:46;;;;;;;7.33;5.03;;;1.40;99.90;;;0.49;100.00;97027.31;4958635;28;20466;-70
2023/11/12 06:26:14;;;;;;;9.60;5.30;;;1.50;99.90;;;0.59;100.00;97018.28;4958073;28;20464;-71
2023/11/12 06:28:41;;;;;;;7.80;5.50;;;1.60;99.90;;;0.61;100.00;97037.53;4946066;28;20490;-70
2023/11/12 06:31:08;;;;;;;6.97;5.20;;;1.60;99.90;;;0.07;100.00;96968.28;4952352;28;20454;-72
2023/11/12 06:33:35;;;;;;;6.07;5.47;;;1.60;99.90;;;0.58;100.00;97043.22;4953142;28;20464;-72
2023/11/12 06:36:04;;;;;;;7.03;6.00;;;1.50;99.90;;;0.58;100.00;97053.84;4953725;28;20476;-72
2023/11/12 06:38:31;;;;;;;5.90;5.30;;;1.60;99.90;;;0.54;100.00;97048.91;4949786;28;20496;-70
2023/11/12 06:40:59;;;;;;;6.20;5.00;;;1.50;99.90;;;0.47;100.00;97045.28;4953305;28;20470;-71
2023/11/12 06:43:27;;;;;;;5.87;5.27;;;1.40;99.90;;;0.55;100.00;97049.72;4953096;28;20459;-71
2023/11/12 06:45:54;;;;;;;6.50;5.83;;;1.50;99.90;;;0.55;100.00;97057.69;4951859;28;20544;-71
2023/11/12 06:48:24;;;;;;;7.80;6.07;;;1.50;99.90;;;0.51;100.00;97062.50;4949150;28;21311;-71
2023/11/12 06:50:51;;;;;;;6.10;5.10;;;1.50;99.90;;;0.55;100.00;97063.84;4952312;28;20476;-71
2023/11/12 06:53:18;;;;;;;7.33;5.07;;;1.50;99.90;;;0.55;100.00;97061.19;4950919;28;20453;-71
2023/11/12 06:55:46;;;;;;;7.20;5.07;;;1.50;99.90;;;0.64;100.00;97064.63;4949748;29;20475;-71
2023/11/12 06:58:14;;;;;;;6.73;5.50;;;1.50;99.90;;;0.66;100.00;97067.94;4964364;28;20487;-72
2023/11/12 07:00:42;;;;;;;7.97;5.37;;;1.60;99.90;;;0.65;100.00;97071.59;4949252;28;20484;-71
2023/11/12 07:03:09;;;;;;;8.33;6.03;;;1.60;99.90;;;0.72;100.00;97071.72;4947427;28;20494;-73
2023/11/12 07:05:37;;;;;;;7.30;5.63;;;1.60;99.90;;;0.79;100.00;97077.97;4946934;29;20477;-72
2023/11/12 07:08:04;;;;;;;6.10;5.50;;;1.70;99.90;;;0.76;100.00;97073.00;4948199;28;21462;-72
2023/11/12 07:10:32;;;;;;;6.57;5.90;;;1.70;99.90;;;0.95;100.00;97082.38;4947045;28;20556;-71
2023/11/12 07:12:59;;;;;;;6.80;6.10;;;1.80;99.90;;;0.91;100.00;97090.88;4949223;28;20941;-70
2023/11/12 07:15:28;;;;;;;6.77;5.63;;;1.90;99.90;;;0.89;100.00;97092.88;4948824;28;21328;-72
2023/11/12 07:17:55;;;;;;;9.70;6.60;;;1.80;99.90;;;0.96;100.00;97089.34;4948767;28;20457;-71
2023/11/12 07:20:25;;;;;;;8.40;6.30;;;1.90;99.90;;;0.97;100.00;97090.16;4946249;29;21238;-73
2023/11/12 07:22:52;;;;;;;8.17;6.33;;;2.00;99.90;;;0.96;100.00;97077.84;4947411;29;20798;-72
2023/11/12 07:25:21;;;;;;;8.90;6.10;;;2.00;99.90;;;1.10;100.00;97095.72;4941978;28;20465;-70
2023/11/12 07:27:48;;;;;;;13.70;7.33;;;2.10;99.90;;;1.19;100.00;97101.00;4946054;28;20526;-71
2023/11/12 07:30:15;;;;;;;8.40;7.00;;;2.10;99.90;;;1.25;100.00;97097.59;4949605;28;20502;-72
2023/11/12 07:32:44;;;;;;;12.40;6.57;;;2.20;99.90;;;1.29;100.00;97098.91;4943324;28;20954;-70
2023/11/12 07:35:13;;;;;;;7.53;5.70;;;2.10;99.90;;;1.40;100.00;97100.31;4952819;28;20465;-72
2023/11/12 07:37:41;;;;;;;8.13;6.97;;;2.20;99.90;;;1.34;100.00;97085.91;4946676;28;20465;-75
2023/11/12 07:40:11;;;;;;;10.50;6.33;;;2.30;99.90;;;1.64;100.00;97109.94;4949087;29;20523;-74
2023/11/12 07:42:39;;;;;;;7.50;6.50;;;2.40;99.90;;;1.79;100.00;97101.13;4954395;28;20453;-75
2023/11/12 07:45:09;;;;;;;10.47;6.10;;;2.50;99.90;;;1.83;100.00;97110.41;4946710;28;21235;-77
2023/11/12 07:47:36;;;;;;;8.17;7.37;;;2.60;99.90;;;1.84;100.00;97109.41;4949355;29;20488;-75
2023/11/12 07:50:06;;;;;;;13.37;6.27;;;2.60;99.90;;;1.87;100.00;97108.22;4948064;28;20612;-76
2023/11/12 07:52:35;;;;;;;8.40;6.40;;;2.70;99.90;;;2.01;100.00;97111.88;4947364;28;20559;-76
2023/11/12 07:55:02;;;;;;;7.57;6.10;;;2.80;99.90;;;2.01;100.00;97110.06;4947833;28;20505;-77
2023/11/12 07:57:31;;;;;;;7.90;6.57;;;2.80;98.20;;;2.17;100.00;97117.03;4954067;28;20555;-73
2023/11/12 07:59:58;;;;;;;6.20;5.50;;;3.00;97.00;;;2.20;100.00;97116.69;4955206;29;20516;-76
2023/11/12 08:02:26;;;;;;;6.90;6.00;;;3.10;95.60;;;2.20;100.00;97116.69;4942783;28;20558;-73
2023/11/12 08:04:53;;;;;;;7.07;6.00;;;3.10;95.00;;;2.24;100.00;97107.31;4945252;28;20557;-77
2023/11/12 08:07:22;;;;;;;8.73;6.50;;;3.10;94.70;;;2.36;100.00;97104.19;4947068;28;20996;-72
2023/11/12 08:09:50;;;;;;;6.90;5.80;;;3.20;95.00;;;2.48;100.00;97110.66;4944219;29;22886;-72
2023/11/12 08:12:17;;;;;;;8.33;6.17;;;3.30;95.40;;;2.58;100.00;97117.56;4945782;29;20897;-72
2023/11/12 08:14:45;;;;;;;7.07;5.40;;;3.30;94.60;;;2.57;99.49;97123.91;4944282;29;20496;-73
2023/11/12 08:17:13;;;;;;;8.30;6.60;;;3.40;93.90;;;2.59;99.69;97129.88;4946786;28;20489;-74
2023/11/12 08:19:40;;;;;;;9.27;6.33;;;3.40;93.30;;;2.49;99.29;97107.00;4947027;28;20546;-73
2023/11/12 08:22:08;;;;;;;8.83;6.40;;;3.50;93.20;;;2.77;98.86;97135.63;4944830;28;20450;-77
2023/11/12 08:24:37;;;;;;;8.30;6.50;;;3.60;92.90;;;2.54;97.94;97133.09;4947463;28;20458;-73
2023/11/12 08:27:05;;;;;;;10.27;7.20;;;3.50;91.70;;;2.69;98.62;97131.25;4942605;28;20508;-73
2023/11/12 08:29:32;;;;;;;13.17;6.87;;;3.60;92.00;;;2.81;98.52;97138.78;4944185;28;20485;-73
2023/11/12 08:32:00;;;;;;;7.93;6.87;;;3.60;92.10;;;2.99;98.20;97141.03;4943648;28;20473;-73
2023/11/12 08:34:27;;;;;;;8.03;6.87;;;3.80;92.80;;;3.16;98.81;97143.47;4948951;28;20478;-76
2023/11/12 08:36:55;;;;;;;10.57;6.73;;;3.90;92.70;;;3.11;96.34;97150.22;4948873;29;20482;-75
2023/11/12 08:39:23;;;;;;;8.43;6.43;;;4.00;91.40;;;3.16;97.11;97151.47;4949214;28;20497;-76
2023/11/12 08:41:52;;;;;;;8.70;6.43;;;3.90;91.50;;;3.19;96.18;97129.72;4947551;28;20548;-82
2023/11/12 08:44:19;;;;;;;8.50;6.00;;;4.10;91.90;;;3.47;96.05;97155.69;4941191;28;20458;-78
2023/11/12 08:46:47;;;;;;;7.80;6.30;;;4.10;91.70;;;3.47;95.79;97153.00;4962079;28;20468;-80
2023/11/12 08:49:15;;;;;;;9.33;7.07;;;4.20;91.30;;;3.41;94.43;97141.25;4949453;28;21153;-83
2023/11/12 08:51:43;;;;;;;8.17;6.20;;;4.30;90.90;;;3.75;94.50;97161.06;4945594;28;20501;-84
2023/11/12 08:54:12;;;;;;;7.80;6.80;;;4.40;91.10;;;3.60;93.10;97114.91;4948400;28;20524;-81
2023/11/12 08:56:39;;;;;;;9.10;6.70;;;4.50;90.90;;;3.93;92.21;97165.94;4928262;29;20469;-73
2023/11/12 08:59:09;;;;;;;7.70;6.87;;;4.70;89.80;;;3.98;90.82;97160.00;4942778;28;20470;-74
2023/11/12 09:01:36;;;;;;;11.50;7.27;;;4.80;87.30;;;4.05;90.09;97170.75;4946632;29;20459;-75
2023/11/12 09:04:04;;;;;;;9.57;6.87;;;4.90;86.60;;;4.38;91.00;97167.47;4944863;28;20468;-69
2023/11/12 09:06:32;;;;;;;9.67;6.50;;;5.10;87.50;;;4.38;88.70;97170.97;4943170;28;20449;-73
2023/11/12 09:08:59;;;;;;;9.13;6.80;;;5.20;86.40;;;4.35;88.76;97173.22;4943377;28;20450;-73
2023/11/12 09:11:26;;;;;;;7.00;6.37;;;5.20;85.80;;;4.22;87.40;97171.28;4940008;28;20972;-72
2023/11/12 09:13:55;;;;;;;8.57;6.70;;;5.20;85.00;;;4.38;88.11;97178.97;4944434;29;20450;-70
2023/11/12 09:16:23;;;;;;;7.63;6.33;;;5.20;85.10;;;4.41;88.54;97185.81;4944728;28;20474;-72
2023/11/12 09:18:51;;;;;;;7.33;6.50;;;5.30;85.30;;;4.53;87.12;97186.91;4948606;28;20457;-70
2023/11/12 09:21:19;;;;;;;9.07;6.90;;;5.40;84.70;;;4.64;87.55;97188.19;4941275;28;20461;-71
2023/11/12 09:23:46;;;;;;;7.27;6.57;;;5.50;84.80;;;5.08;87.61;97175.44;4943344;29;20453;-72
2023/11/12 09:26:20;;;;;;;7.30;6.50;;;5.70;85.50;;;5.01;84.93;97169.22;4943934;29;20457;-71
2023/11/12 09:28:48;;;;;;;8.43;7.53;;;5.90;83.80;;;5.47;84.17;97175.72;4944984;29;20469;-74
2023/11/12 09:31:15;;;;;;;5.93;5.33;;;6.20;84.00;;;5.80;82.34;97172.25;4969570;28;20973;-72
2023/11/12 09:33:44;;;;;;;9.67;5.77;;;6.40;83.00;;;5.83;82.14;97176.38;4962127;28;20515;-72
2023/11/12 09:36:12;;;;;;;6.00;5.50;;;6.50;82.50;;;6.15;80.14;97178.47;4967844;28;20524;-71
2023/11/12 09:38:39;;;;;;;5.90;5.20;;;6.70;82.10;;;6.36;80.20;97172.03;4961699;28;20451;-76
2023/11/12 09:41:07;;;;;;;13.57;7.23;;;7.00;82.00;;;6.27;79.36;97181.34;4943847;28;20469;-80
2023/11/12 09:43:35;;;;;;;5.23;4.73;;;7.00;80.80;;;6.19;78.58;97169.81;4947925;28;20464;-79
2023/11/12 09:46:06;;;;;;;5.27;4.73;;;7.10;80.20;;;6.43;78.45;97175.53;4945532;28;20872;-79
2023/11/12 09:48:36;;;;;;;5.67;5.13;;;7.10;79.90;;;6.71;76.81;97177.13;4961928;28;21007;-80
2023/11/12 09:51:06;;;;;;;6.40;5.60;;;7.40;79.60;;;6.62;78.63;97160.41;4945673;29;20942;-77
2023/11/12 09:53:34;;;;;;;6.03;5.43;;;7.40;80.30;;;6.63;77.82;97172.00;4947950;28;20628;-75
2023/11/12 09:56:08;;;;;;;6.13;5.40;;;7.30;79.70;;;6.79;77.51;97166.16;4946357;28;20812;-77
2023/11/12 09:58:36;;;;;;;6.77;5.43;;;7.40;79.90;;;6.74;76.25;97165.13;4940972;28;20808;-78
2023/11/12 10:01:06;;;;;;;6.30;5.70;;;7.50;79.20;;;6.68;76.98;97166.00;4944659;28;20898;-78
2023/11/12 10:03:34;;;;;;;5.97;5.37;;;7.50;79.00;;;6.73;76.69;97169.66;4945876;28;20464;-78
2023/11/12 10:06:03;;;;;;;6.00;4.57;;;7.50;79.10;;;6.75;76.80;97170.31;4944939;28;20450;-79
2023/11/12 10:08:34;;;;;;;5.67;5.10;;;7.50;78.90;;;6.55;77.85;97173.03;4947873;29;20512;-76
2023/11/12 10:11:15;;;;;;;6.97;5.73;;;7.40;79.20;;;6.60;76.40;97175.09;4949956;28;20489;-73
2023/11/12 10:13:42;;;;;;;7.53;6.30;;;7.50;78.70;;;6.61;77.61;97161.47;4952955;28;20530;-71
2023/11/12 10:16:23;;;;;;;5.93;5.13;;;7.30;78.80;;;6.79;77.05;97152.72;4967240;28;20510;-71
2023/11/12 10:18:51;;;;;;;7.20;6.10;;;7.50;79.20;;;6.38;77.29;97151.19;4972976;28;20439;-72
2023/11/12 10:21:19;;;;;;;6.90;5.47;;;7.40;79.30;;;6.50;77.49;97181.72;4962237;28;20966;-74
2023/11/12 10:23:48;;;;;;;4.93;4.43;;;7.30;78.90;;;6.63;77.33;97158.56;4953275;29;20546;-76
2023/11/12 10:26:15;;;;;;;5.73;5.17;;;7.40;79.20;;;6.66;76.25;97172.38;4952225;28;20458;-79
2023/11/12 10:28:43;;;;;;;5.97;5.37;;;7.40;78.60;;;6.81;76.67;97168.63;4948872;28;20494;-78
2023/11/12 10:31:13;;;;;;;7.63;5.67;;;7.50;78.70;;;6.91;76.62;97160.94;4948439;28;20510;-76